createdAt,value
2018-11-05T00:02:12.937Z,29.02
2018-11-05T00:04:44.616Z,29.63
2018-11-05T00:07:11.938Z,32.28
2018-11-05T00:09:39.447Z,29.42
2018-11-05T00:12:07.247Z,31.40
2018-11-05T00:14:34.779Z,32.20
2018-11-05T00:17:02.278Z,34.73
2018-11-05T00:19:29.884Z,32.00
2018-11-05T00:21:57.296Z,31.30
2018-11-05T00:24:25.047Z,32.00
2018-11-05T00:26:52.476Z,33.65
2018-11-05T00:29:20.154Z,34.05
2018-11-05T00:31:47.659Z,31.82
2018-11-05T00:34:15.243Z,31.57
2018-11-05T00:36:47.168Z,31.40
2018-11-05T00:39:15.210Z,34.03
2018-11-05T00:41:43.094Z,34.75
2018-11-05T00:44:14.782Z,33.02
2018-11-05T00:46:42.775Z,32.67
2018-11-05T00:49:10.194Z,33.83
2018-11-05T00:51:37.586Z,33.28
2018-11-05T00:54:06.404Z,34.65
2018-11-05T00:56:34.528Z,29.60
2018-11-05T00:59:01.943Z,31.57
2018-11-05T01:01:29.466Z,34.70
2018-11-05T01:03:56.873Z,31.37
2018-11-05T01:06:25.281Z,32.95
2018-11-05T01:08:53.233Z,32.67
2018-11-05T01:11:20.808Z,34.10
2018-11-05T01:13:48.331Z,33.35
2018-11-05T01:16:15.938Z,32.55
2018-11-05T01:18:43.918Z,34.20
2018-11-05T01:21:11.474Z,33.48
2018-11-05T01:23:38.889Z,31.17
2018-11-05T01:26:06.325Z,32.98
2018-11-05T01:28:33.814Z,34.38
2018-11-05T01:31:01.333Z,30.35
2018-11-05T01:33:29.479Z,35.20
2018-11-05T01:35:57.340Z,30.95
2018-11-05T01:38:24.680Z,32.67
2018-11-05T01:40:52.594Z,35.58
2018-11-05T01:43:19.975Z,35.43
2018-11-05T01:45:47.375Z,35.50
2018-11-05T01:48:14.718Z,32.45
2018-11-05T01:50:43.435Z,36.30
2018-11-05T01:53:11.061Z,35.75
2018-11-05T01:55:38.553Z,36.50
2018-11-05T01:58:06.454Z,31.12
2018-11-05T02:00:33.857Z,32.93
2018-11-05T02:03:02.192Z,32.45
2018-11-05T02:05:29.583Z,35.98
2018-11-05T02:07:57.119Z,37.73
2018-11-05T02:10:25.308Z,35.68
2018-11-05T02:12:52.631Z,32.50
2018-11-05T02:15:19.962Z,31.20
2018-11-05T02:17:48.064Z,32.40
2018-11-05T02:20:16.381Z,31.07
2018-11-05T02:22:44.722Z,35.40
2018-11-05T02:25:16.788Z,33.48
2018-11-05T02:27:44.199Z,33.40
2018-11-05T02:30:13.644Z,32.28
2018-11-05T02:32:41.119Z,36.15
2018-11-05T02:35:11.615Z,35.08
2018-11-05T02:37:39.950Z,34.18
2018-11-05T02:40:08.583Z,35.28
2018-11-05T02:42:36.419Z,32.93
2018-11-05T02:45:04.186Z,34.70
2018-11-05T02:47:31.724Z,31.57
2018-11-05T02:49:59.145Z,32.00
2018-11-05T02:52:26.663Z,34.15
2018-11-05T02:54:54.098Z,33.35
2018-11-05T02:57:21.502Z,34.60
2018-11-05T02:59:48.828Z,32.28
2018-11-05T03:02:16.579Z,32.15
2018-11-05T03:04:44.836Z,30.50
2018-11-05T03:07:12.226Z,33.30
2018-11-05T03:09:39.850Z,35.80
2018-11-05T03:12:07.342Z,31.57
2018-11-05T03:14:34.714Z,35.35
2018-11-05T03:17:02.951Z,33.13
2018-11-05T03:19:30.324Z,32.67
2018-11-05T03:21:57.675Z,32.48
2018-11-05T03:24:25.810Z,37.00
2018-11-05T03:26:53.185Z,35.88
2018-11-05T03:29:29.955Z,35.85
2018-11-05T03:31:57.306Z,38.35
2018-11-05T03:34:24.780Z,32.80
2018-11-05T03:36:52.239Z,37.20
2018-11-05T03:39:20.521Z,35.28
2018-11-05T03:41:47.935Z,39.40
2018-11-05T03:44:15.999Z,37.70
2018-11-05T03:46:43.448Z,34.08
2018-11-05T03:49:11.118Z,33.23
2018-11-05T03:51:38.535Z,34.33
2018-11-05T03:54:06.302Z,35.80
2018-11-05T03:56:33.933Z,35.80
2018-11-05T03:59:01.507Z,36.38
2018-11-05T04:01:28.937Z,38.38
2018-11-05T04:03:57.878Z,33.70
2018-11-05T04:06:25.314Z,35.85
2018-11-05T04:08:52.727Z,37.03
2018-11-05T04:11:20.235Z,34.98
2018-11-05T04:13:47.936Z,36.05
2018-11-05T04:16:15.339Z,38.38
2018-11-05T04:18:43.199Z,39.80
2018-11-05T04:21:10.569Z,38.15
2018-11-05T04:23:38.830Z,39.38
2018-11-05T04:26:06.192Z,33.25
2018-11-05T04:28:39.010Z,36.48
2018-11-05T04:31:07.132Z,34.65
2018-11-05T04:33:34.626Z,37.45
2018-11-05T04:36:02.067Z,33.83
2018-11-05T04:38:29.648Z,38.17
2018-11-05T04:40:57.259Z,40.05
2018-11-05T04:43:26.111Z,35.65
2018-11-05T04:45:53.603Z,35.23
2018-11-05T04:48:21.637Z,40.17
2018-11-05T04:50:49.026Z,38.60
2018-11-05T04:53:16.422Z,39.33
2018-11-05T04:55:43.824Z,40.73
2018-11-05T04:58:11.326Z,38.02
2018-11-05T05:00:39.742Z,43.65
2018-11-05T05:03:09.685Z,39.55
2018-11-05T05:05:37.152Z,42.38
2018-11-05T05:08:04.508Z,40.88
2018-11-05T05:10:32.125Z,40.40
2018-11-05T05:13:00.068Z,43.02
2018-11-05T05:15:27.738Z,38.35
2018-11-05T05:17:55.171Z,36.85
2018-11-05T05:20:22.609Z,38.42
2018-11-05T05:22:50.314Z,40.50
2018-11-05T05:25:17.803Z,42.33
2018-11-05T05:27:45.198Z,38.35
2018-11-05T05:30:17.377Z,38.58
2018-11-05T05:32:46.517Z,40.28
2018-11-05T05:35:14.135Z,36.17
2018-11-05T05:37:42.275Z,42.50
2018-11-05T05:40:10.395Z,36.38
2018-11-05T05:42:39.555Z,37.13
2018-11-05T05:45:08.705Z,44.33
2018-11-05T05:47:40.768Z,42.80
2018-11-05T05:50:11.059Z,39.27
2018-11-05T05:52:38.451Z,43.52
2018-11-05T05:55:05.830Z,40.43
2018-11-05T05:57:33.262Z,45.70
2018-11-05T06:00:05.208Z,47.45
2018-11-05T06:02:33.044Z,40.30
2018-11-05T06:05:00.594Z,38.63
2018-11-05T06:07:28.844Z,43.45
2018-11-05T06:09:56.388Z,44.83
2018-11-05T06:12:23.821Z,37.35
2018-11-05T06:14:51.595Z,40.70
2018-11-05T06:17:19.007Z,38.98
2018-11-05T06:19:46.327Z,43.65
2018-11-05T06:22:13.733Z,37.23
2018-11-05T06:24:41.126Z,38.13
2018-11-05T06:27:08.522Z,36.48
2018-11-05T06:29:36.234Z,39.25
2018-11-05T06:32:04.362Z,41.23
2018-11-05T06:34:31.714Z,40.67
2018-11-05T06:36:59.798Z,38.48
2018-11-05T06:39:27.194Z,35.40
2018-11-05T06:41:55.039Z,42.65
2018-11-05T06:44:22.320Z,35.70
2018-11-05T06:46:49.609Z,37.48
2018-11-05T06:49:16.930Z,40.30
2018-11-05T06:51:44.301Z,36.38
2018-11-05T06:54:11.907Z,37.88
2018-11-05T06:56:39.322Z,35.52
2018-11-05T06:59:06.638Z,38.10
2018-11-05T07:01:34.630Z,38.13
2018-11-05T07:04:02.147Z,38.23
2018-11-05T07:06:29.441Z,34.40
2018-11-05T07:08:57.153Z,40.08
2018-11-05T07:11:24.489Z,35.90
2018-11-05T07:13:51.791Z,34.25
2018-11-05T07:16:19.098Z,37.48
2018-11-05T07:18:46.712Z,35.70
2018-11-05T07:21:14.459Z,38.48
2018-11-05T07:23:41.786Z,43.38
2018-11-05T07:26:09.190Z,35.25
2018-11-05T07:28:36.839Z,39.25
2018-11-05T07:31:04.431Z,36.70
2018-11-05T07:33:31.871Z,34.95
2018-11-05T07:35:59.628Z,34.70
2018-11-05T07:38:27.324Z,35.13
2018-11-05T07:40:54.762Z,35.75
2018-11-05T07:43:22.134Z,37.70
2018-11-05T07:45:49.537Z,35.52
2018-11-05T07:48:17.737Z,34.75
2018-11-05T07:50:45.580Z,37.00
2018-11-05T07:53:12.934Z,35.48
2018-11-05T07:55:40.206Z,36.23
2018-11-05T07:58:08.385Z,34.95
2018-11-05T08:00:41.198Z,37.63
2018-11-05T08:03:08.598Z,33.10
2018-11-05T08:05:35.943Z,35.17
2018-11-05T08:08:03.303Z,36.28
2018-11-05T08:10:30.645Z,33.30
2018-11-05T08:12:58.782Z,36.15
2018-11-05T08:15:26.464Z,31.82
2018-11-05T08:17:54.164Z,34.45
2018-11-05T08:20:21.466Z,30.80
2018-11-05T08:22:48.866Z,34.85
2018-11-05T08:25:17.006Z,33.98
2018-11-05T08:27:45.215Z,30.72
2018-11-05T08:30:17.619Z,33.45
2018-11-05T08:32:44.995Z,35.10
2018-11-05T08:35:13.344Z,33.28
2018-11-05T08:37:41.642Z,31.95
2018-11-05T08:40:09.861Z,33.85
2018-11-05T08:42:37.199Z,29.70
2018-11-05T08:45:05.104Z,34.23
2018-11-05T08:47:32.501Z,35.70
2018-11-05T08:49:59.830Z,31.12
2018-11-05T08:52:27.769Z,31.45
2018-11-05T08:54:55.314Z,32.60
2018-11-05T08:57:22.679Z,32.30
2018-11-05T08:59:50.060Z,31.05
2018-11-05T09:02:17.357Z,31.00
2018-11-05T09:04:44.753Z,29.37
2018-11-05T09:07:12.166Z,34.58
2018-11-05T09:09:40.008Z,32.70
2018-11-05T09:12:07.545Z,32.85
2018-11-05T09:14:34.884Z,30.82
2018-11-05T09:17:03.032Z,29.85
2018-11-05T09:19:30.439Z,33.33
2018-11-05T09:21:57.731Z,28.02
2018-11-05T09:24:25.636Z,28.83
2018-11-05T09:26:53.060Z,31.02
2018-11-05T09:29:20.472Z,30.27
2018-11-05T09:31:47.879Z,28.80
2018-11-05T09:34:16.022Z,28.07
2018-11-05T09:36:43.315Z,29.07
2018-11-05T09:39:10.807Z,30.75
2018-11-05T09:41:38.118Z,30.02
2018-11-05T09:44:05.450Z,29.92
2018-11-05T09:46:32.764Z,30.08
2018-11-05T09:49:00.143Z,29.35
2018-11-05T09:51:27.458Z,28.05
2018-11-05T09:53:54.780Z,26.82
2018-11-05T09:56:22.123Z,28.40
2018-11-05T09:58:49.494Z,28.23
2018-11-05T10:01:16.807Z,30.00
2018-11-05T10:03:49.477Z,29.57
2018-11-05T10:06:17.480Z,27.42
2018-11-05T10:08:44.927Z,28.07
2018-11-05T10:11:12.259Z,26.80
2018-11-05T10:13:39.727Z,28.75
2018-11-05T10:16:07.790Z,29.30
2018-11-05T10:18:35.079Z,29.00
2018-11-05T10:21:02.480Z,30.70
2018-11-05T10:23:29.756Z,29.05
2018-11-05T10:25:57.064Z,29.77
2018-11-05T10:28:24.379Z,31.97
2018-11-05T10:30:52.535Z,30.55
2018-11-05T10:33:19.912Z,32.80
2018-11-05T10:35:52.572Z,27.15
2018-11-05T10:38:19.876Z,28.12
2018-11-05T10:40:47.322Z,28.52
2018-11-05T10:43:15.315Z,28.32
2018-11-05T10:45:42.650Z,29.70
2018-11-05T10:48:09.960Z,27.55
2018-11-05T10:50:37.631Z,28.15
2018-11-05T10:53:06.571Z,30.95
2018-11-05T10:55:33.970Z,27.62
2018-11-05T10:58:01.385Z,27.45
2018-11-05T11:00:34.182Z,28.20
2018-11-05T11:03:07.170Z,27.13
2018-11-05T11:05:35.456Z,28.52
2018-11-05T11:08:03.334Z,27.50
2018-11-05T11:12:58.255Z,28.35
2018-11-05T11:15:30.571Z,25.45
2018-11-05T11:17:59.172Z,28.87
2018-11-05T11:20:26.507Z,30.50
2018-11-05T11:22:54.074Z,27.00
2018-11-05T11:25:21.571Z,27.58
2018-11-05T11:27:49.005Z,28.32
2018-11-05T11:30:17.032Z,25.35
2018-11-05T11:32:44.910Z,27.65
2018-11-05T11:35:13.231Z,28.38
2018-11-05T11:37:40.868Z,26.35
2018-11-05T11:40:08.945Z,27.20
2018-11-05T11:42:36.686Z,28.23
2018-11-05T11:45:04.306Z,28.70
2018-11-05T11:47:32.176Z,26.90
2018-11-05T11:49:59.693Z,28.35
2018-11-05T11:52:27.277Z,28.17
2018-11-05T11:54:54.603Z,26.95
2018-11-05T11:57:22.239Z,28.07
2018-11-05T11:59:49.674Z,26.93
2018-11-05T12:02:18.243Z,28.95
2018-11-05T12:04:46.467Z,26.27
2018-11-05T12:07:13.968Z,28.32
2018-11-05T12:09:41.398Z,28.00
2018-11-05T12:12:10.338Z,28.90
2018-11-05T12:14:37.991Z,28.32
2018-11-05T12:17:05.856Z,28.10
2018-11-05T12:19:33.771Z,28.17
2018-11-05T12:22:01.293Z,27.58
2018-11-05T12:24:28.705Z,26.23
2018-11-05T12:26:56.098Z,26.35
2018-11-05T12:29:23.505Z,30.23
2018-11-05T12:31:50.988Z,26.70
2018-11-05T12:34:18.354Z,27.93
2018-11-05T12:36:45.813Z,30.37
2018-11-05T12:39:13.372Z,29.50
2018-11-05T12:41:41.379Z,30.05
2018-11-05T12:44:09.761Z,29.02
2018-11-05T12:46:38.311Z,29.98
2018-11-05T12:49:05.822Z,41.30
2018-11-05T12:51:33.312Z,28.87
2018-11-05T12:54:01.427Z,31.65
2018-11-05T12:56:28.821Z,29.42
2018-11-05T12:58:56.081Z,29.67
2018-11-05T13:01:23.653Z,32.15
2018-11-05T13:03:50.994Z,29.40
2018-11-05T13:06:18.993Z,28.70
2018-11-05T13:08:46.328Z,29.05
2018-11-05T13:11:14.258Z,31.95
2018-11-05T13:13:41.738Z,31.37
2018-11-05T13:16:09.118Z,30.85
2018-11-05T13:18:36.419Z,29.07
2018-11-05T13:21:04.426Z,29.05
2018-11-05T13:23:43.360Z,28.80
2018-11-05T13:26:11.156Z,30.43
2018-11-05T13:28:38.950Z,27.73
2018-11-05T13:31:06.606Z,30.10
2018-11-05T13:33:33.996Z,31.82
2018-11-05T13:36:01.293Z,29.37
2018-11-05T13:38:28.641Z,29.92
2018-11-05T13:40:56.006Z,28.15
2018-11-05T13:43:23.313Z,31.40
2018-11-05T13:45:50.994Z,32.17
2018-11-05T13:48:18.394Z,29.48
2018-11-05T13:50:45.350Z,28.25
2018-11-05T13:53:12.722Z,29.65
2018-11-05T13:55:40.086Z,28.25
2018-11-05T13:58:07.485Z,33.98
2018-11-05T14:00:34.870Z,32.05
2018-11-05T14:03:02.360Z,30.97
2018-11-05T14:05:30.178Z,31.27
2018-11-05T14:07:57.534Z,30.88
2018-11-05T14:10:24.883Z,32.40
2018-11-05T14:12:53.022Z,30.12
2018-11-05T14:15:20.719Z,33.90
2018-11-05T14:17:48.124Z,30.37
2018-11-05T14:20:17.479Z,30.85
2018-11-05T14:22:44.825Z,30.97
2018-11-05T14:25:13.769Z,32.75
2018-11-05T14:27:41.973Z,33.30
2018-11-05T14:30:10.420Z,31.35
2018-11-05T14:32:37.971Z,35.23
2018-11-05T14:35:06.073Z,31.93
2018-11-05T14:37:33.492Z,33.63
2018-11-05T14:40:01.015Z,33.90
2018-11-05T14:42:28.416Z,34.83
2018-11-05T14:44:55.729Z,31.52
2018-11-05T14:47:23.031Z,31.35
2018-11-05T14:49:50.448Z,32.28
2018-11-05T14:52:17.858Z,31.30
2018-11-05T14:54:45.338Z,31.37
2018-11-05T14:57:12.687Z,32.38
2018-11-05T14:59:39.959Z,30.40
2018-11-05T15:02:12.743Z,33.88
2018-11-05T15:04:40.102Z,32.20
2018-11-05T15:07:08.506Z,31.57
2018-11-05T15:09:36.003Z,30.45
2018-11-05T15:12:03.298Z,33.08
2018-11-05T15:14:30.595Z,30.40
2018-11-05T15:16:57.913Z,30.08
2018-11-05T15:19:25.571Z,34.35
2018-11-05T15:21:52.617Z,32.33
2018-11-05T15:24:20.252Z,33.48
2018-11-05T15:26:47.836Z,33.15
2018-11-05T15:29:15.055Z,35.83
2018-11-05T15:31:42.442Z,36.33
2018-11-05T15:34:09.847Z,36.93
2018-11-05T15:36:37.654Z,40.08
2018-11-05T15:39:06.394Z,42.30
2018-11-05T15:41:34.203Z,35.60
2018-11-05T15:44:01.549Z,33.98
2018-11-05T15:46:29.569Z,35.45
2018-11-05T15:48:56.967Z,37.93
2018-11-05T15:51:24.546Z,44.15
2018-11-05T15:53:51.779Z,43.08
2018-11-05T15:56:19.178Z,46.77
2018-11-05T15:58:46.547Z,40.15
2018-11-05T16:01:14.697Z,43.02
2018-11-05T16:03:42.078Z,37.03
2018-11-05T16:06:09.687Z,34.50
2018-11-05T16:08:37.169Z,35.03
2018-11-05T16:11:04.503Z,33.10
2018-11-05T16:13:32.803Z,33.35
2018-11-05T16:16:00.104Z,32.03
2018-11-05T16:18:27.449Z,33.42
2018-11-05T16:20:54.808Z,35.88
2018-11-05T16:23:22.769Z,33.70
2018-11-05T16:25:50.153Z,32.20
2018-11-05T16:28:18.129Z,34.20
2018-11-05T16:30:45.505Z,32.38
2018-11-05T16:33:12.795Z,32.35
2018-11-05T16:35:40.576Z,31.85
2018-11-05T16:38:08.289Z,32.40
2018-11-05T16:40:35.614Z,33.38
2018-11-05T16:43:03.091Z,33.98
2018-11-05T16:45:30.422Z,33.58
2018-11-05T16:47:58.636Z,34.75
2018-11-05T16:50:27.065Z,38.67
2018-11-05T16:52:54.568Z,32.63
2018-11-05T16:55:22.058Z,30.05
2018-11-05T16:57:49.443Z,35.30
2018-11-05T17:00:17.250Z,37.90
2018-11-05T17:02:45.538Z,31.73
2018-11-05T17:05:12.846Z,34.58
2018-11-05T17:07:40.338Z,34.33
2018-11-05T17:10:08.610Z,36.60
2018-11-05T17:12:37.082Z,38.42
2018-11-05T17:15:05.541Z,34.18
2018-11-05T17:17:32.942Z,36.50
2018-11-05T17:20:00.828Z,41.30
2018-11-05T17:22:28.245Z,39.60
2018-11-05T17:24:55.677Z,39.30
2018-11-05T17:27:23.068Z,37.95
2018-11-05T17:29:50.496Z,44.20
2018-11-05T17:32:17.899Z,48.98
2018-11-05T17:34:45.494Z,48.63
2018-11-05T17:37:12.835Z,41.73
2018-11-05T17:39:40.191Z,39.65
2018-11-05T17:42:07.565Z,40.03
2018-11-05T17:44:35.033Z,40.00
2018-11-05T17:47:02.452Z,37.98
2018-11-05T17:49:29.884Z,39.58
2018-11-05T17:51:57.337Z,35.98
2018-11-05T17:54:24.726Z,41.40
2018-11-05T17:56:52.223Z,48.90
2018-11-05T17:59:19.684Z,42.45
2018-11-05T18:01:47.330Z,43.17
2018-11-05T18:04:14.886Z,38.15
2018-11-05T18:06:42.249Z,39.63
2018-11-05T18:09:10.137Z,41.48
2018-11-05T18:11:38.495Z,40.55
2018-11-05T18:14:06.546Z,41.45
2018-11-05T18:16:34.039Z,38.58
2018-11-05T18:19:01.585Z,41.10
2018-11-05T18:21:29.016Z,39.63
2018-11-05T18:23:56.661Z,41.00
2018-11-05T18:26:24.060Z,43.40
2018-11-05T18:28:51.502Z,46.30
2018-11-05T18:31:19.526Z,36.00
2018-11-05T18:33:46.880Z,39.92
2018-11-05T18:36:14.547Z,40.78
2018-11-05T18:38:41.946Z,40.40
2018-11-05T18:41:09.410Z,40.33
2018-11-05T18:43:36.874Z,36.88
2018-11-05T18:46:04.305Z,40.65
2018-11-05T18:48:33.001Z,35.75
2018-11-05T18:51:00.928Z,36.50
2018-11-05T18:53:28.766Z,34.45
2018-11-05T18:55:56.439Z,34.75
2018-11-05T18:58:24.073Z,45.45
2018-11-05T19:00:52.245Z,43.92
2018-11-05T19:03:20.163Z,43.83
2018-11-05T19:05:47.948Z,42.78
2018-11-05T19:08:16.374Z,46.53
2018-11-05T19:10:44.329Z,41.73
2018-11-05T19:13:12.031Z,42.80
2018-11-05T19:15:39.780Z,45.30
2018-11-05T19:18:07.833Z,47.30
2018-11-05T19:20:35.204Z,49.40
2018-11-05T19:23:02.987Z,44.08
2018-11-05T19:25:30.176Z,47.62
2018-11-05T19:27:57.539Z,46.80
2018-11-05T19:30:26.378Z,49.93
2018-11-05T19:32:54.430Z,48.23
2018-11-05T19:35:21.885Z,43.50
2018-11-05T19:37:49.504Z,44.88
2018-11-05T19:40:17.789Z,45.43
2018-11-05T19:42:46.983Z,44.63
2018-11-05T19:45:20.051Z,45.63
2018-11-05T19:47:47.525Z,52.75
2018-11-05T19:50:16.297Z,52.55
2018-11-05T19:52:44.687Z,50.63
2018-11-05T19:55:13.302Z,49.80
2018-11-05T19:57:41.830Z,47.58
2018-11-05T20:00:14.624Z,49.53
2018-11-05T20:02:42.084Z,49.83
2018-11-05T20:05:09.574Z,51.63
2018-11-05T20:07:37.062Z,52.60
2018-11-05T20:10:04.957Z,49.75
2018-11-05T20:12:32.761Z,52.50
2018-11-05T20:15:00.331Z,56.65
2018-11-05T20:17:27.770Z,49.30
2018-11-05T20:19:55.239Z,48.20
2018-11-05T20:22:22.829Z,48.92
2018-11-05T20:24:50.155Z,48.30
2018-11-05T20:27:18.402Z,49.38
2018-11-05T20:29:46.552Z,43.70
2018-11-05T20:32:14.157Z,49.70
2018-11-05T20:34:42.013Z,43.98
2018-11-05T20:37:09.370Z,46.42
2018-11-05T20:39:37.537Z,46.20
2018-11-05T20:42:05.347Z,44.85
2018-11-05T20:44:32.892Z,43.15
2018-11-05T20:47:00.386Z,46.28
2018-11-05T20:49:28.093Z,49.83
2018-11-05T20:51:55.578Z,42.80
2018-11-05T20:54:23.289Z,48.50
2018-11-05T20:56:50.796Z,45.70
2018-11-05T20:59:18.336Z,43.65
2018-11-05T21:01:45.908Z,44.75
2018-11-05T21:04:13.583Z,43.98
2018-11-05T21:06:41.271Z,40.03
2018-11-05T21:09:09.545Z,40.52
2018-11-05T21:11:37.054Z,41.02
2018-11-05T21:14:04.494Z,39.53
2018-11-05T21:16:31.931Z,43.40
2018-11-05T21:18:59.302Z,41.45
2018-11-05T21:21:27.184Z,42.62
2018-11-05T21:23:54.564Z,39.10
2018-11-05T21:26:21.988Z,42.58
2018-11-05T21:28:49.539Z,58.30
2018-11-05T21:31:16.942Z,41.65
2018-11-05T21:33:44.979Z,38.67
2018-11-05T21:36:12.993Z,37.70
2018-11-05T21:38:40.546Z,41.68
2018-11-05T21:41:08.559Z,42.60
2018-11-05T21:43:36.126Z,38.10
2018-11-05T21:46:04.168Z,41.42
2018-11-05T21:48:31.605Z,39.08
2018-11-05T21:50:59.153Z,40.65
2018-11-05T21:53:26.555Z,38.33
2018-11-05T21:55:58.201Z,41.65
2018-11-05T21:58:30.226Z,37.17
2018-11-05T22:00:58.213Z,36.65
2018-11-05T22:03:25.729Z,39.45
2018-11-05T22:05:53.286Z,39.00
2018-11-05T22:08:21.215Z,37.00
2018-11-05T22:10:48.610Z,43.52
2018-11-05T22:13:16.145Z,40.17
2018-11-05T22:15:46.539Z,38.00
2018-11-05T22:18:14.631Z,37.98
2018-11-05T22:20:42.022Z,35.92
2018-11-05T22:23:09.905Z,38.60
2018-11-05T22:25:37.346Z,42.48
2018-11-05T22:28:05.099Z,37.30
2018-11-05T22:30:40.628Z,38.53
2018-11-05T22:33:08.926Z,41.68
2018-11-05T22:35:37.110Z,38.00
2018-11-05T22:38:04.784Z,38.33
2018-11-05T22:40:32.205Z,38.13
2018-11-05T22:42:59.611Z,36.60
2018-11-05T22:45:26.969Z,35.40
2018-11-05T22:47:55.205Z,40.10
2018-11-05T22:50:22.703Z,38.10
2018-11-05T22:52:50.098Z,39.45
2018-11-05T22:55:17.629Z,34.18
2018-11-05T22:57:45.019Z,37.95
2018-11-05T23:00:20.116Z,42.55
2018-11-05T23:02:52.756Z,38.48
2018-11-05T23:05:20.546Z,36.53
2018-11-05T23:07:47.990Z,33.80
2018-11-05T23:10:15.314Z,36.98
2018-11-05T23:12:42.752Z,37.25
2018-11-05T23:15:10.201Z,38.58
2018-11-05T23:17:37.628Z,39.35
2018-11-05T23:20:05.445Z,35.60
2018-11-05T23:22:32.836Z,38.95
2018-11-05T23:25:00.234Z,40.25
2018-11-05T23:27:28.162Z,35.20
2018-11-05T23:29:55.681Z,34.95
2018-11-05T23:32:23.906Z,33.80
2018-11-05T23:34:51.303Z,36.13
2018-11-05T23:37:19.725Z,38.55
2018-11-05T23:39:47.254Z,39.30
2018-11-05T23:42:15.950Z,35.98
2018-11-05T23:44:43.326Z,36.15
2018-11-05T23:47:10.755Z,38.20
2018-11-05T23:49:38.475Z,35.95
2018-11-05T23:52:05.924Z,36.93
2018-11-05T23:54:33.275Z,38.38
2018-11-05T23:57:01.008Z,38.42
2018-11-05T23:59:28.398Z,36.73
